Time;durP1;ratioP1;P1;durP2;ratioP2;P2;SDS_P1;SDS_P2;PMS_P1;PMS_P2;Temp;Humidity;BMP_temperature;BMP_pressure;BME280_temperature;BME280_humidity;BME280_pressure;Samples;Min_cycle;Max_cycle;Signal;HPM_P1;HPM_P2
2021/01/15 00:00:47;;;;;;;0.40;0.40;;;0.70;99.90;;;;;;5002628;28;20196;-70
2021/01/15 00:03:13;;;;;;;0.40;0.40;;;0.70;99.90;;;;;;4996264;28;20265;-72
2021/01/15 00:05:39;;;;;;;0.40;0.40;;;0.70;99.90;;;;;;4992994;28;20198;-71
2021/01/15 00:08:05;;;;;;;0.30;0.30;;;0.70;99.90;;;;;;4976464;28;20587;-72
2021/01/15 00:10:31;;;;;;;0.30;0.30;;;0.70;99.90;;;;;;4963325;28;20273;-71
2021/01/15 00:12:57;;;;;;;0.40;0.40;;;0.70;99.90;;;;;;4995546;28;20882;-71
2021/01/15 00:15:22;;;;;;;0.30;0.30;;;0.70;99.90;;;;;;4994761;28;20195;-74
2021/01/15 00:17:48;;;;;;;0.40;0.40;;;0.70;99.90;;;;;;4994605;28;20207;-70
2021/01/15 00:20:14;;;;;;;0.30;0.30;;;0.70;99.90;;;;;;5002558;28;20662;-69
2021/01/15 00:22:43;;;;;;;0.30;0.30;;;0.70;99.90;;;;;;4996862;28;20215;-72
2021/01/15 00:25:11;;;;;;;0.30;0.30;;;0.70;99.90;;;;;;4994280;28;20175;-70
2021/01/15 00:27:38;;;;;;;0.50;0.50;;;0.70;99.90;;;;;;5010103;28;20182;-70
2021/01/15 00:30:05;;;;;;;0.40;0.40;;;0.70;99.90;;;;;;5013524;28;20987;-71
2021/01/15 00:32:35;;;;;;;0.40;0.40;;;0.70;99.90;;;;;;5007839;28;20198;-71
2021/01/15 00:35:00;;;;;;;0.30;0.30;;;0.60;99.90;;;;;;5005784;28;20195;-71
2021/01/15 00:37:26;;;;;;;0.30;0.30;;;0.70;99.90;;;;;;4994200;28;20587;-70
2021/01/15 00:39:55;;;;;;;0.33;0.33;;;0.70;99.90;;;;;;5011209;28;20442;-71
2021/01/15 00:42:21;;;;;;;0.50;0.50;;;0.70;99.90;;;;;;4999281;28;20223;-71
2021/01/15 00:44:49;;;;;;;0.40;0.40;;;0.70;99.90;;;;;;5010965;28;20698;-71
2021/01/15 00:47:15;;;;;;;1.33;1.27;;;0.70;99.90;;;;;;4998800;28;20182;-71
2021/01/15 00:49:41;;;;;;;1.23;1.23;;;0.70;99.90;;;;;;4994096;28;20204;-71
2021/01/15 00:52:07;;;;;;;0.40;0.40;;;0.60;99.90;;;;;;5006107;28;20202;-71
2021/01/15 00:54:32;;;;;;;0.40;0.40;;;0.60;99.90;;;;;;5013744;28;20536;-71
2021/01/15 00:56:59;;;;;;;0.30;0.30;;;0.60;99.90;;;;;;5002426;28;20190;-71
2021/01/15 00:59:25;;;;;;;0.30;0.30;;;0.60;99.90;;;;;;4993794;28;20572;-71
2021/01/15 01:01:53;;;;;;;2.00;1.40;;;0.60;99.90;;;;;;5001468;28;20191;-71
2021/01/15 01:04:20;;;;;;;0.30;0.30;;;0.60;99.90;;;;;;4993879;28;20178;-71
2021/01/15 01:06:46;;;;;;;0.30;0.30;;;0.60;99.90;;;;;;5010696;28;20186;-71
2021/01/15 01:09:12;;;;;;;0.30;0.30;;;0.60;99.90;;;;;;5011742;28;20171;-71
2021/01/15 01:11:37;;;;;;;0.37;0.37;;;0.60;99.90;;;;;;5012008;28;20241;-71
2021/01/15 01:14:04;;;;;;;0.30;0.30;;;0.60;99.90;;;;;;5013465;28;20421;-72
2021/01/15 01:16:31;;;;;;;0.40;0.40;;;0.60;99.90;;;;;;4998018;28;20528;-71
2021/01/15 01:18:58;;;;;;;0.60;0.60;;;0.60;99.90;;;;;;4993939;28;20206;-70
2021/01/15 01:21:24;;;;;;;0.40;0.40;;;0.60;99.90;;;;;;5013014;28;20194;-71
2021/01/15 01:23:50;;;;;;;0.40;0.40;;;0.60;99.90;;;;;;5011741;28;20180;-74
2021/01/15 01:26:16;;;;;;;0.40;0.40;;;0.50;99.90;;;;;;4993580;28;20171;-70
2021/01/15 01:28:42;;;;;;;0.40;0.40;;;0.50;99.90;;;;;;4993832;28;20202;-71
2021/01/15 01:31:10;;;;;;;0.40;0.40;;;0.60;99.90;;;;;;5011026;28;20562;-73
2021/01/15 01:33:36;;;;;;;0.30;0.30;;;0.50;99.90;;;;;;5013294;28;20191;-71
2021/01/15 01:36:03;;;;;;;0.35;0.35;;;0.50;99.90;;;;;;4996116;28;20180;-71
2021/01/15 01:38:29;;;;;;;3.53;1.15;;;0.40;99.90;;;;;;4993567;28;20202;-74
2021/01/15 01:40:54;;;;;;;0.33;0.33;;;0.40;99.90;;;;;;5009906;28;20186;-72
2021/01/15 01:43:20;;;;;;;0.40;0.40;;;0.40;99.90;;;;;;4996818;28;20187;-70
2021/01/15 01:45:46;;;;;;;0.30;0.30;;;0.40;99.90;;;;;;5006348;28;20174;-71
2021/01/15 01:48:12;;;;;;;0.30;0.30;;;0.40;99.90;;;;;;5013030;28;20179;-73
2021/01/15 01:50:41;;;;;;;0.30;0.30;;;0.40;99.90;;;;;;4996058;28;20466;-72
2021/01/15 01:53:11;;;;;;;0.40;0.40;;;0.30;99.90;;;;;;4994957;28;20327;-71
2021/01/15 01:55:38;;;;;;;0.30;0.30;;;0.30;99.90;;;;;;5016010;28;20181;-71
2021/01/15 01:58:04;;;;;;;0.60;0.60;;;0.20;99.90;;;;;;5013973;28;20174;-72
2021/01/15 02:00:30;;;;;;;0.30;0.30;;;0.20;99.90;;;;;;5016443;28;20258;-72
2021/01/15 02:02:56;;;;;;;0.40;0.40;;;0.10;99.90;;;;;;5016462;28;20283;-72
2021/01/15 02:05:22;;;;;;;0.37;0.37;;;0.10;99.90;;;;;;4997459;28;20426;-71
2021/01/15 02:07:50;;;;;;;0.30;0.30;;;0.10;99.90;;;;;;5005735;28;20467;-71
2021/01/15 02:10:19;;;;;;;0.30;0.30;;;0.10;99.90;;;;;;5009962;28;20638;-73
2021/01/15 02:12:57;;;;;;;0.30;0.30;;;0.10;99.90;;;;;;5004186;28;20197;-72
2021/01/15 02:15:52;;;;;;;0.30;0.30;;;0.10;99.90;;;;;;4996984;28;20167;-70
2021/01/15 02:18:31;;;;;;;0.30;0.30;;;0.20;99.90;;;;;;5010585;28;20548;-70
2021/01/15 02:21:19;;;;;;;0.30;0.30;;;0.10;99.90;;;;;;5015807;28;20635;-71
2021/01/15 02:23:46;;;;;;;0.30;0.30;;;0.10;99.90;;;;;;4998638;28;20212;-72
2021/01/15 02:26:47;;;;;;;0.30;0.30;;;0.10;99.90;;;;;;4996724;28;20179;-71
2021/01/15 02:29:19;;;;;;;0.43;0.43;;;0.10;99.90;;;;;;4999803;28;20242;-72
2021/01/15 02:31:45;;;;;;;0.30;0.30;;;0.10;99.90;;;;;;5015146;28;20583;-72
2021/01/15 02:34:48;;;;;;;0.30;0.30;;;0.00;99.90;;;;;;4996545;28;20184;-71
2021/01/15 02:37:38;;;;;;;0.40;0.40;;;0.00;99.90;;;;;;4999777;28;20174;-70
2021/01/15 02:40:06;;;;;;;0.30;0.30;;;-0.10;99.90;;;;;;5007601;28;20298;-71
2021/01/15 02:42:37;;;;;;;0.30;0.30;;;-0.10;99.90;;;;;;5001414;28;20217;-71
2021/01/15 02:45:09;;;;;;;0.30;0.30;;;-0.10;99.90;;;;;;5003494;28;20262;-71
2021/01/15 02:47:49;;;;;;;0.30;0.30;;;-0.10;99.90;;;;;;4996195;28;20179;-72
2021/01/15 02:50:17;;;;;;;0.30;0.30;;;-0.10;99.90;;;;;;4995618;28;20206;-72
2021/01/15 02:52:43;;;;;;;0.40;0.40;;;-0.10;99.90;;;;;;4998819;28;20210;-73
2021/01/15 02:55:11;;;;;;;0.30;0.30;;;-0.20;99.90;;;;;;4994915;28;20182;-73
2021/01/15 02:57:37;;;;;;;0.30;0.30;;;-0.20;99.90;;;;;;5000283;28;20174;-71
2021/01/15 03:00:09;;;;;;;0.30;0.30;;;-0.20;99.90;;;;;;5015164;28;20255;-72
2021/01/15 03:02:59;;;;;;;0.40;0.40;;;-0.20;99.90;;;;;;5011254;28;20613;-70
2021/01/15 03:05:45;;;;;;;0.30;0.30;;;-0.30;99.90;;;;;;4994725;28;20200;-71
2021/01/15 03:08:15;;;;;;;0.30;0.30;;;-0.30;99.90;;;;;;5003311;28;20705;-72
2021/01/15 03:10:41;;;;;;;0.40;0.40;;;-0.30;99.90;;;;;;5002187;28;20210;-72
2021/01/15 03:13:08;;;;;;;0.30;0.30;;;-0.30;99.90;;;;;;4995534;28;20339;-72
2021/01/15 03:15:36;;;;;;;0.47;0.47;;;-0.30;99.90;;;;;;4961737;28;20532;-71
2021/01/15 03:18:04;;;;;;;0.30;0.30;;;-0.30;99.90;;;;;;4983877;28;20197;-72
2021/01/15 03:20:30;;;;;;;0.30;0.30;;;-0.30;99.90;;;;;;5010496;28;20547;-71
2021/01/15 03:22:57;;;;;;;0.40;0.40;;;-0.30;99.90;;;;;;4998220;28;20203;-70
2021/01/15 03:25:25;;;;;;;0.30;0.30;;;-0.40;99.90;;;;;;5015195;28;20563;-70
2021/01/15 03:27:53;;;;;;;0.30;0.30;;;-0.40;99.90;;;;;;5012222;28;20181;-71
2021/01/15 03:30:22;;;;;;;0.30;0.30;;;-0.40;99.90;;;;;;5007256;28;20237;-72
2021/01/15 03:32:51;;;;;;;0.30;0.30;;;-0.40;99.90;;;;;;5014517;28;20643;-72
2021/01/15 03:35:23;;;;;;;0.30;0.30;;;-0.40;99.90;;;;;;5014925;28;20170;-72
2021/01/15 03:37:54;;;;;;;0.40;0.40;;;-0.40;99.90;;;;;;5014327;28;20167;-73
2021/01/15 03:40:20;;;;;;;0.30;0.30;;;-0.40;99.90;;;;;;5001855;28;20663;-71
2021/01/15 03:42:46;;;;;;;0.40;0.40;;;-0.40;99.90;;;;;;4995093;28;20234;-72
2021/01/15 03:45:13;;;;;;;0.30;0.30;;;-0.40;99.90;;;;;;4995220;28;20430;-72
2021/01/15 03:47:38;;;;;;;0.40;0.40;;;-0.50;99.90;;;;;;4995105;28;20411;-71
2021/01/15 03:50:05;;;;;;;0.30;0.30;;;-0.50;99.90;;;;;;5006926;28;20222;-73
2021/01/15 03:52:30;;;;;;;0.30;0.30;;;-0.50;99.90;;;;;;4995297;28;20195;-71
2021/01/15 03:54:56;;;;;;;0.30;0.30;;;-0.60;99.90;;;;;;5005881;28;20183;-72
2021/01/15 03:57:22;;;;;;;0.30;0.30;;;-0.60;99.90;;;;;;5013353;28;20170;-72
2021/01/15 03:59:47;;;;;;;0.50;0.50;;;-0.60;99.90;;;;;;4996589;28;20426;-72
2021/01/15 04:02:14;;;;;;;0.30;0.30;;;-0.60;99.90;;;;;;5008429;28;20258;-71
2021/01/15 04:04:41;;;;;;;0.40;0.40;;;-0.60;99.90;;;;;;4995002;28;20175;-70
2021/01/15 04:07:07;;;;;;;0.30;0.30;;;-0.60;99.90;;;;;;5009518;28;20191;-71
2021/01/15 04:09:33;;;;;;;0.40;0.30;;;-0.60;99.90;;;;;;4974034;28;20190;-71
2021/01/15 04:11:59;;;;;;;0.30;0.30;;;-0.60;99.90;;;;;;4992716;28;20199;-71
2021/01/15 04:14:24;;;;;;;1.20;1.10;;;-0.60;99.90;;;;;;4994530;28;20283;-72
2021/01/15 04:16:53;;;;;;;0.30;0.30;;;-0.60;99.90;;;;;;4999083;28;20426;-70
2021/01/15 04:19:18;;;;;;;0.40;0.40;;;-0.60;99.90;;;;;;4993207;28;20179;-71
2021/01/15 04:21:44;;;;;;;0.30;0.30;;;-0.60;99.90;;;;;;4994236;28;20288;-71
2021/01/15 04:24:10;;;;;;;0.40;0.40;;;-0.60;99.90;;;;;;5001403;28;20229;-71
2021/01/15 04:26:36;;;;;;;0.30;0.30;;;-0.60;99.90;;;;;;5005239;28;20489;-71
2021/01/15 04:29:02;;;;;;;0.30;0.30;;;-0.60;99.90;;;;;;4994358;28;20926;-72
2021/01/15 04:31:28;;;;;;;0.30;0.30;;;-0.60;99.90;;;;;;5000603;28;20462;-71
2021/01/15 04:33:53;;;;;;;0.50;0.50;;;-0.60;99.90;;;;;;5012563;28;20701;-72
2021/01/15 04:36:19;;;;;;;0.40;0.40;;;-0.60;99.90;;;;;;5008560;28;20168;-73
2021/01/15 04:38:47;;;;;;;0.30;0.30;;;-0.70;99.90;;;;;;4996381;28;20175;-73
2021/01/15 04:41:22;;;;;;;0.40;0.40;;;-0.80;99.90;;;;;;4993499;28;20222;-71
2021/01/15 04:43:54;;;;;;;0.30;0.30;;;-0.80;99.90;;;;;;4992889;28;20167;-72
2021/01/15 04:46:23;;;;;;;0.40;0.40;;;-0.80;99.90;;;;;;4997942;28;20570;-73
2021/01/15 04:48:51;;;;;;;0.35;0.35;;;-0.90;99.90;;;;;;5012529;28;20579;-72
2021/01/15 04:51:22;;;;;;;0.35;0.35;;;-0.90;99.90;;;;;;5012045;28;20222;-73
2021/01/15 04:53:56;;;;;;;0.35;0.35;;;-1.00;99.90;;;;;;5012500;28;20266;-71
2021/01/15 04:56:40;;;;;;;0.30;0.30;;;-1.00;99.90;;;;;;5007151;28;20206;-72
2021/01/15 04:59:10;;;;;;;0.30;0.30;;;-1.10;99.90;;;;;;4993955;28;20543;-72
2021/01/15 05:01:49;;;;;;;0.30;0.30;;;-1.10;99.90;;;;;;4993664;28;20195;-71
2021/01/15 05:04:16;;;;;;;0.30;0.30;;;-1.20;99.90;;;;;;4994133;28;20166;-72
2021/01/15 05:06:50;;;;;;;0.40;0.40;;;-1.20;99.90;;;;;;5002120;28;20534;-72
2021/01/15 05:09:17;;;;;;;0.40;0.40;;;-1.20;99.90;;;;;;5011329;28;20167;-72
2021/01/15 05:11:44;;;;;;;0.40;0.40;;;-1.30;99.90;;;;;;4992150;28;20619;-71
2021/01/15 05:14:13;;;;;;;0.40;0.40;;;-1.30;99.90;;;;;;4994127;28;20186;-71
2021/01/15 05:16:44;;;;;;;0.40;0.40;;;-1.30;99.90;;;;;;5000248;28;20543;-71
2021/01/15 05:19:11;;;;;;;0.40;0.40;;;-1.40;99.90;;;;;;5013103;28;20247;-72
2021/01/15 05:21:38;;;;;;;0.40;0.40;;;-1.40;99.90;;;;;;5010893;28;20213;-72
2021/01/15 05:24:08;;;;;;;0.40;0.40;;;-1.50;99.90;;;;;;5007683;28;20182;-71
2021/01/15 05:26:35;;;;;;;0.40;0.40;;;-1.50;99.90;;;;;;5013407;28;20630;-71
2021/01/15 05:29:06;;;;;;;0.40;0.40;;;-1.50;99.90;;;;;;5006599;28;20179;-74
2021/01/15 05:32:01;;;;;;;0.40;0.40;;;-1.60;99.90;;;;;;4995784;28;20319;-71
2021/01/15 05:34:29;;;;;;;0.30;0.30;;;-1.70;99.90;;;;;;5015783;28;20623;-72
2021/01/15 05:37:02;;;;;;;0.40;0.40;;;-1.70;99.90;;;;;;5017247;28;20171;-72
2021/01/15 05:39:27;;;;;;;0.40;0.40;;;-1.70;99.90;;;;;;5003317;28;20183;-70
2021/01/15 05:42:02;;;;;;;0.40;0.40;;;-1.80;99.90;;;;;;4996894;28;20672;-72
2021/01/15 05:44:33;;;;;;;0.38;0.38;;;-1.80;99.90;;;;;;4997693;28;20175;-73
2021/01/15 05:47:01;;;;;;;1.67;1.67;;;-1.80;99.90;;;;;;4997440;28;20640;-73
2021/01/15 05:49:28;;;;;;;0.50;0.50;;;-1.80;99.90;;;;;;5007886;28;20542;-73
2021/01/15 05:51:54;;;;;;;0.30;0.30;;;-1.80;99.90;;;;;;5016374;28;20282;-73
2021/01/15 05:54:31;;;;;;;0.40;0.40;;;-1.80;99.90;;;;;;5007231;28;20293;-72
2021/01/15 05:56:57;;;;;;;0.30;0.30;;;-1.90;99.90;;;;;;4997361;28;20430;-72
2021/01/15 05:59:23;;;;;;;0.30;0.30;;;-1.90;99.90;;;;;;5005773;28;20583;-74
2021/01/15 06:02:19;;;;;;;0.40;0.40;;;-1.90;99.90;;;;;;5013446;28;20194;-74
2021/01/15 06:04:45;;;;;;;1.17;1.17;;;-1.90;99.90;;;;;;4998650;28;20426;-70
2021/01/15 06:07:11;;;;;;;0.30;0.30;;;-2.00;99.90;;;;;;5016619;28;20251;-72
2021/01/15 06:09:37;;;;;;;0.40;0.40;;;-2.00;99.90;;;;;;5006025;28;20267;-74
2021/01/15 06:12:08;;;;;;;0.30;0.30;;;-2.00;99.90;;;;;;4996400;28;20200;-72
2021/01/15 06:14:49;;;;;;;0.30;0.30;;;-2.00;99.90;;;;;;5004820;28;20198;-72
2021/01/15 06:17:17;;;;;;;0.30;0.30;;;-1.90;99.90;;;;;;4995837;28;20550;-70
2021/01/15 06:19:46;;;;;;;0.50;0.50;;;-2.00;99.90;;;;;;5009589;28;20199;-70
2021/01/15 06:22:30;;;;;;;0.40;0.40;;;-1.90;99.90;;;;;;5016055;28;20671;-71
2021/01/15 06:25:01;;;;;;;0.40;0.40;;;-1.90;99.90;;;;;;5005117;28;20198;-71
2021/01/15 06:27:37;;;;;;;0.40;0.40;;;-1.90;99.90;;;;;;5016218;28;20269;-71
2021/01/15 06:30:13;;;;;;;0.40;0.40;;;-1.80;99.90;;;;;;4998967;28;20309;-72
2021/01/15 06:32:41;;;;;;;0.40;0.40;;;-1.80;99.90;;;;;;4996524;28;20552;-72
2021/01/15 06:35:08;;;;;;;0.40;0.40;;;-1.80;99.90;;;;;;5011950;28;20646;-72
2021/01/15 06:37:40;;;;;;;0.40;0.40;;;-1.80;99.90;;;;;;5014603;28;20233;-73
2021/01/15 06:40:11;;;;;;;0.40;0.40;;;-1.80;99.90;;;;;;5012749;28;20175;-72
2021/01/15 06:42:48;;;;;;;2.25;2.15;;;-1.80;99.90;;;;;;5015235;28;20205;-74
2021/01/15 06:45:16;;;;;;;0.40;0.40;;;-1.80;99.90;;;;;;5000069;28;20183;-71
2021/01/15 06:47:43;;;;;;;0.30;0.30;;;-1.80;99.90;;;;;;4996305;28;20250;-71
2021/01/15 06:50:15;;;;;;;0.40;0.40;;;-1.80;99.90;;;;;;4995499;28;20246;-72
2021/01/15 06:52:46;;;;;;;0.30;0.30;;;-1.80;99.90;;;;;;4994894;28;20195;-73
2021/01/15 06:55:16;;;;;;;0.40;0.40;;;-1.90;99.90;;;;;;5003260;28;20667;-72
2021/01/15 06:57:49;;;;;;;0.40;0.40;;;-1.80;99.90;;;;;;5015692;28;20210;-71
2021/01/15 07:00:23;;;;;;;0.40;0.40;;;-1.80;99.90;;;;;;5013217;28;20233;-73
2021/01/15 07:03:29;;;;;;;0.30;0.30;;;-1.80;99.90;;;;;;5009237;28;20191;-72
2021/01/15 07:05:59;;;;;;;0.40;0.40;;;-1.80;99.90;;;;;;4985169;28;20191;-70
2021/01/15 07:08:33;;;;;;;0.85;0.85;;;-1.80;99.90;;;;;;5009105;28;20709;-71
2021/01/15 07:10:59;;;;;;;0.30;0.30;;;-1.80;99.90;;;;;;5014646;28;20241;-71
2021/01/15 07:13:28;;;;;;;0.30;0.30;;;-1.70;99.90;;;;;;5000632;28;20206;-71
2021/01/15 07:15:55;;;;;;;0.30;0.30;;;-1.70;99.90;;;;;;4995712;28;20213;-72
2021/01/15 07:18:32;;;;;;;0.30;0.30;;;-1.70;99.90;;;;;;4994376;28;20532;-74
2021/01/15 07:21:13;;;;;;;0.40;0.40;;;-1.70;99.90;;;;;;5004231;28;20174;-71
2021/01/15 07:24:02;;;;;;;0.40;0.40;;;-1.70;99.90;;;;;;5015215;28;20173;-70
2021/01/15 07:26:39;;;;;;;0.60;0.60;;;-1.70;99.90;;;;;;4997228;28;20207;-72
2021/01/15 07:29:09;;;;;;;0.40;0.40;;;-1.70;99.90;;;;;;4995622;28;20214;-75
2021/01/15 07:31:39;;;;;;;0.32;0.32;;;-1.60;99.90;;;;;;5008040;28;20206;-73
2021/01/15 07:34:12;;;;;;;0.35;0.35;;;-1.50;99.90;;;;;;5014962;28;20588;-70
2021/01/15 07:36:39;;;;;;;0.35;0.35;;;-1.40;99.90;;;;;;5000324;28;20180;-70
2021/01/15 07:39:12;;;;;;;0.60;0.60;;;-1.40;99.90;;;;;;5013269;28;20173;-72
2021/01/15 07:41:40;;;;;;;0.40;0.40;;;-1.10;99.90;;;;;;5011286;28;20210;-74
2021/01/15 07:44:27;;;;;;;0.40;0.40;;;-0.90;99.90;;;;;;5010625;28;20226;-71
2021/01/15 07:46:59;;;;;;;0.40;0.40;;;-0.60;99.90;;;;;;5011840;28;20725;-70
2021/01/15 07:49:25;;;;;;;0.40;0.40;;;-0.40;99.90;;;;;;5012428;28;20185;-71
2021/01/15 07:52:11;;;;;;;0.40;0.40;;;-0.20;99.90;;;;;;5012752;28;20221;-74
2021/01/15 07:54:57;;;;;;;0.35;0.35;;;0.00;99.90;;;;;;5012207;28;20186;-70
2021/01/15 07:57:24;;;;;;;0.30;0.30;;;0.10;99.90;;;;;;5014325;28;20643;-75
2021/01/15 07:59:51;;;;;;;0.40;0.40;;;0.20;99.90;;;;;;5014106;28;20190;-72
2021/01/15 08:02:21;;;;;;;0.30;0.30;;;0.30;99.90;;;;;;5012971;28;20202;-75
2021/01/15 08:04:49;;;;;;;0.30;0.30;;;0.30;99.90;;;;;;5012796;28;20190;-75
2021/01/15 08:07:29;;;;;;;0.40;0.40;;;0.30;99.90;;;;;;5007824;28;20195;-71
2021/01/15 08:09:55;;;;;;;0.40;0.40;;;0.30;99.90;;;;;;5005011;28;20631;-71
2021/01/15 08:12:21;;;;;;;0.40;0.40;;;0.30;99.90;;;;;;5014427;28;20273;-77
2021/01/15 08:14:46;;;;;;;0.50;0.50;;;0.20;99.90;;;;;;5014115;28;20182;-69
2021/01/15 08:17:14;;;;;;;0.30;0.30;;;0.20;99.90;;;;;;5009643;28;20175;-70
2021/01/15 08:19:41;;;;;;;0.40;0.40;;;0.20;99.90;;;;;;5014072;28;20171;-74
2021/01/15 08:22:08;;;;;;;2.45;2.35;;;0.30;99.90;;;;;;5013444;28;20600;-71
2021/01/15 08:24:52;;;;;;;0.40;0.40;;;0.40;99.90;;;;;;5014329;28;20174;-70
2021/01/15 08:27:22;;;;;;;1.10;1.00;;;0.60;99.90;;;;;;5013977;28;20224;-69
2021/01/15 08:29:50;;;;;;;0.30;0.30;;;0.80;99.90;;;;;;5012774;28;20225;-71
2021/01/15 08:32:16;;;;;;;0.35;0.35;;;1.00;99.90;;;;;;5012454;28;20719;-71
2021/01/15 08:34:42;;;;;;;0.30;0.30;;;1.20;99.90;;;;;;5013717;28;20177;-71
2021/01/15 08:37:10;;;;;;;0.30;0.30;;;1.60;99.90;;;;;;5013712;28;20171;-68
2021/01/15 08:39:50;;;;;;;0.40;0.40;;;2.00;99.90;;;;;;5013229;28;20571;-70
2021/01/15 08:42:17;;;;;;;0.30;0.30;;;2.50;99.90;;;;;;5012902;28;20540;-69
2021/01/15 08:44:46;;;;;;;0.30;0.30;;;3.00;99.90;;;;;;5012257;28;20170;-68
2021/01/15 08:47:13;;;;;;;3.63;1.00;;;3.40;99.90;;;;;;5013418;28;20179;-69
2021/01/15 08:49:50;;;;;;;0.75;0.75;;;3.80;99.90;;;;;;5013316;28;20167;-71
2021/01/15 08:52:21;;;;;;;0.30;0.30;;;4.40;99.90;;;;;;5010786;28;20278;-74
2021/01/15 08:54:47;;;;;;;0.30;0.30;;;5.00;99.90;;;;;;5003006;28;20262;-69
2021/01/15 08:57:14;;;;;;;0.40;0.40;;;5.60;99.50;;;;;;5001329;28;20703;-66
2021/01/15 08:59:40;;;;;;;1.48;1.38;;;6.10;98.20;;;;;;5001149;28;20417;-67
2021/01/15 09:02:06;;;;;;;0.57;0.57;;;6.50;96.50;;;;;;4998413;28;20198;-69
2021/01/15 09:04:33;;;;;;;0.63;0.63;;;6.80;96.80;;;;;;5003271;28;20254;-69
2021/01/15 09:07:01;;;;;;;0.50;0.40;;;7.20;94.90;;;;;;4995547;28;20206;-69
2021/01/15 09:09:29;;;;;;;0.63;0.63;;;7.40;92.80;;;;;;5008901;28;20238;-68
2021/01/15 09:11:59;;;;;;;0.43;0.43;;;7.40;92.80;;;;;;4993136;28;20250;-70
2021/01/15 09:14:25;;;;;;;0.32;0.30;;;7.60;93.30;;;;;;4993918;28;20520;-68
2021/01/15 09:16:55;;;;;;;0.30;0.30;;;8.20;92.50;;;;;;4993722;28;20169;-68
2021/01/15 09:19:21;;;;;;;0.30;0.30;;;8.50;91.40;;;;;;4992853;28;20574;-69
2021/01/15 09:21:56;;;;;;;0.30;0.30;;;8.60;90.60;;;;;;4993390;28;20440;-66
2021/01/15 09:24:32;;;;;;;1.77;1.67;;;8.80;90.00;;;;;;4993984;28;20406;-68
2021/01/15 09:27:08;;;;;;;0.30;0.20;;;8.90;89.00;;;;;;4993631;28;20402;-67
2021/01/15 09:29:35;;;;;;;0.50;0.50;;;9.10;89.10;;;;;;4993561;28;20409;-65
2021/01/15 09:32:01;;;;;;;0.30;0.30;;;9.30;86.70;;;;;;4993343;28;20859;-67
2021/01/15 09:34:27;;;;;;;0.80;0.60;;;9.40;87.10;;;;;;4994497;28;20428;-67
2021/01/15 09:36:54;;;;;;;0.40;0.40;;;9.40;85.90;;;;;;4993661;28;20466;-72
2021/01/15 09:39:22;;;;;;;0.57;0.57;;;9.50;85.70;;;;;;4993601;28;20419;-72
2021/01/15 09:41:50;;;;;;;1.57;1.07;;;9.80;84.00;;;;;;4993005;28;21019;-69
2021/01/15 09:44:17;;;;;;;0.30;0.20;;;10.10;83.10;;;;;;5009573;28;20423;-68
2021/01/15 09:46:44;;;;;;;0.30;0.30;;;10.40;80.40;;;;;;5013194;28;20405;-68
2021/01/15 09:49:10;;;;;;;2.50;1.23;;;10.60;79.40;;;;;;5013067;28;20831;-67
2021/01/15 09:51:36;;;;;;;0.30;0.20;;;10.20;78.80;;;;;;5012528;28;20488;-68
2021/01/15 09:54:01;;;;;;;0.40;0.40;;;10.00;79.30;;;;;;5012973;28;20223;-71
2021/01/15 09:56:40;;;;;;;1.33;1.13;;;9.90;81.50;;;;;;5005079;28;20274;-67
2021/01/15 09:59:07;;;;;;;0.30;0.30;;;9.90;80.90;;;;;;4992270;28;20178;-76
2021/01/15 10:01:33;;;;;;;1.57;1.47;;;10.00;79.30;;;;;;4992869;28;20519;-72
2021/01/15 10:03:59;;;;;;;0.60;0.60;;;10.10;79.20;;;;;;4993566;28;20490;-71
2021/01/15 10:06:32;;;;;;;0.30;0.30;;;10.20;79.00;;;;;;4993343;28;20415;-76
2021/01/15 10:08:59;;;;;;;0.50;0.40;;;10.20;78.20;;;;;;4993251;28;20975;-72
2021/01/15 10:11:26;;;;;;;0.40;0.40;;;10.00;78.60;;;;;;5003670;28;20584;-72
2021/01/15 10:13:56;;;;;;;0.77;0.77;;;9.90;79.10;;;;;;5003290;28;20552;-73
2021/01/15 10:16:22;;;;;;;1.27;1.27;;;10.00;78.10;;;;;;5004777;28;20403;-74
2021/01/15 10:18:52;;;;;;;0.57;0.57;;;10.10;78.20;;;;;;5007247;28;20940;-73
2021/01/15 10:21:27;;;;;;;0.30;0.30;;;10.20;79.00;;;;;;5009948;28;20958;-74
2021/01/15 10:23:56;;;;;;;0.70;0.40;;;10.20;77.60;;;;;;5015478;28;20429;-71
2021/01/15 10:26:40;;;;;;;0.30;0.30;;;10.10;78.10;;;;;;5016357;28;20476;-73
2021/01/15 10:29:11;;;;;;;1.10;1.00;;;9.90;78.50;;;;;;5016059;28;20914;-72
2021/01/15 10:31:50;;;;;;;0.50;0.50;;;9.60;79.20;;;;;;5015267;28;20544;-72
2021/01/15 10:34:16;;;;;;;0.30;0.30;;;9.30;82.20;;;;;;5011781;28;20447;-72
2021/01/15 10:36:44;;;;;;;1.00;0.87;;;9.30;82.90;;;;;;4996391;28;20398;-72
2021/01/15 10:39:10;;;;;;;0.60;0.60;;;9.50;82.70;;;;;;4996537;28;20398;-76
2021/01/15 10:41:38;;;;;;;0.30;0.20;;;9.60;82.50;;;;;;4994430;28;20990;-70
2021/01/15 10:44:06;;;;;;;0.80;0.80;;;9.80;82.00;;;;;;4996182;28;20484;-71
2021/01/15 10:46:36;;;;;;;3.03;1.70;;;9.90;78.50;;;;;;5007884;28;20422;-71
2021/01/15 10:49:03;;;;;;;0.30;0.30;;;9.90;80.40;;;;;;5015813;28;20760;-70
2021/01/15 10:51:29;;;;;;;0.40;0.40;;;9.90;81.70;;;;;;5013866;28;20473;-68
2021/01/15 10:53:54;;;;;;;0.83;0.83;;;9.80;80.60;;;;;;5014975;28;20443;-70
2021/01/15 10:56:20;;;;;;;0.80;0.77;;;9.50;82.70;;;;;;5015064;28;20182;-68
2021/01/15 10:58:46;;;;;;;0.50;0.50;;;9.30;84.00;;;;;;5015643;28;20167;-69
2021/01/15 11:01:15;;;;;;;1.47;0.97;;;9.20;87.30;;;;;;5015169;28;20436;-69
2021/01/15 11:03:43;;;;;;;0.30;0.30;;;9.00;83.90;;;;;;5015441;28;20176;-69
2021/01/15 11:06:09;;;;;;;0.63;0.60;;;8.60;85.10;;;;;;5013299;28;20424;-67
2021/01/15 11:08:35;;;;;;;0.30;0.30;;;8.40;86.60;;;;;;5014123;28;20416;-69
2021/01/15 11:11:00;;;;;;;0.70;0.60;;;8.20;86.80;;;;;;5014637;28;20459;-72
2021/01/15 11:13:26;;;;;;;0.77;0.77;;;7.80;87.60;;;;;;5013980;28;20176;-68
2021/01/15 11:15:54;;;;;;;0.73;0.73;;;7.50;88.60;;;;;;5014241;28;20190;-69
2021/01/15 11:18:20;;;;;;;0.55;0.55;;;7.50;88.90;;;;;;5015284;28;20658;-67
2021/01/15 11:20:45;;;;;;;0.30;0.30;;;7.30;89.60;;;;;;5006303;28;20183;-67
2021/01/15 11:23:14;;;;;;;1.03;1.03;;;6.90;90.60;;;;;;5015024;28;20191;-69
2021/01/15 11:25:42;;;;;;;0.38;0.38;;;6.30;91.30;;;;;;5014904;28;20209;-71
2021/01/15 11:28:08;;;;;;;0.60;0.45;;;5.70;91.60;;;;;;5015393;28;20257;-72
2021/01/15 11:30:34;;;;;;;0.30;0.30;;;5.20;92.70;;;;;;5014224;28;20293;-73
2021/01/15 11:32:59;;;;;;;0.50;0.50;;;4.90;93.20;;;;;;5013641;28;20451;-75
2021/01/15 11:35:25;;;;;;;0.80;0.80;;;4.50;94.10;;;;;;5015116;28;20167;-73
2021/01/15 11:37:57;;;;;;;0.30;0.30;;;4.10;94.50;;;;;;5014400;28;20657;-74
2021/01/15 11:40:25;;;;;;;0.30;0.20;;;3.90;94.70;;;;;;5013110;28;20228;-73
2021/01/15 11:42:56;;;;;;;0.55;0.55;;;3.70;95.30;;;;;;5015091;28;20640;-74
2021/01/15 11:45:22;;;;;;;0.50;0.50;;;3.60;95.50;;;;;;4998808;28;20229;-71
2021/01/15 11:47:54;;;;;;;2.80;0.75;;;3.60;95.60;;;;;;4994839;28;20710;-73
2021/01/15 11:50:22;;;;;;;0.30;0.30;;;3.30;96.40;;;;;;4993237;28;20253;-75
2021/01/15 11:52:52;;;;;;;0.30;0.30;;;3.10;97.50;;;;;;4994169;28;20257;-74
2021/01/15 11:55:18;;;;;;;0.30;0.30;;;3.00;97.80;;;;;;4994384;28;20174;-73
2021/01/15 11:57:44;;;;;;;0.30;0.30;;;3.00;98.40;;;;;;4994351;28;20175;-73
2021/01/15 12:00:11;;;;;;;1.65;0.98;;;2.90;98.30;;;;;;4994374;28;20544;-75
2021/01/15 12:02:37;;;;;;;0.30;0.30;;;2.90;98.40;;;;;;4993172;28;20250;-74
2021/01/15 12:05:02;;;;;;;0.30;0.30;;;2.90;98.60;;;;;;4994603;28;20576;-72
2021/01/15 12:07:29;;;;;;;0.40;0.40;;;2.90;98.90;;;;;;5000491;28;20260;-72
2021/01/15 12:09:55;;;;;;;0.30;0.30;;;2.90;98.70;;;;;;5013958;28;20167;-73
2021/01/15 12:12:20;;;;;;;0.30;0.30;;;2.80;98.40;;;;;;5014194;28;20190;-73
2021/01/15 12:14:46;;;;;;;0.40;0.40;;;2.80;98.70;;;;;;5014240;28;20182;-70
2021/01/15 12:17:11;;;;;;;0.30;0.30;;;2.90;99.00;;;;;;5014348;28;20210;-72
2021/01/15 12:19:37;;;;;;;1.13;0.90;;;2.90;99.20;;;;;;5014039;28;20643;-70
2021/01/15 12:22:03;;;;;;;0.40;0.40;;;2.90;99.10;;;;;;5008460;28;20278;-71
2021/01/15 12:24:28;;;;;;;0.30;0.30;;;2.80;98.40;;;;;;5002771;28;20206;-74
2021/01/15 12:26:59;;;;;;;0.30;0.30;;;2.80;98.40;;;;;;5013794;28;20225;-72
2021/01/15 12:29:25;;;;;;;0.30;0.30;;;2.80;98.40;;;;;;5014175;28;20186;-76
2021/01/15 12:31:54;;;;;;;0.30;0.30;;;2.90;98.50;;;;;;5012041;28;20297;-78
2021/01/15 12:34:20;;;;;;;0.30;0.30;;;2.80;98.60;;;;;;5014156;28;20197;-73
2021/01/15 12:36:45;;;;;;;0.30;0.30;;;2.80;98.60;;;;;;5012999;28;20171;-73
2021/01/15 12:39:11;;;;;;;0.47;0.47;;;2.80;98.80;;;;;;5013680;28;20189;-74
2021/01/15 12:41:36;;;;;;;0.30;0.30;;;2.90;98.60;;;;;;5013339;28;20216;-72
2021/01/15 12:44:02;;;;;;;0.30;0.30;;;2.90;98.40;;;;;;4996306;28;20229;-73
2021/01/15 12:46:29;;;;;;;0.30;0.30;;;2.90;98.20;;;;;;4999339;28;20624;-70
2021/01/15 12:48:55;;;;;;;0.30;0.30;;;2.90;98.00;;;;;;4992834;28;20209;-71
2021/01/15 12:51:20;;;;;;;0.30;0.30;;;2.80;98.40;;;;;;4993340;28;20293;-73
2021/01/15 12:53:48;;;;;;;0.30;0.30;;;2.80;98.50;;;;;;4994163;28;20482;-71
2021/01/15 12:56:17;;;;;;;0.30;0.30;;;2.80;98.30;;;;;;4994099;28;20263;-72
2021/01/15 12:58:43;;;;;;;0.30;0.20;;;2.80;98.40;;;;;;4993073;28;20179;-71
2021/01/15 13:01:09;;;;;;;0.32;0.32;;;2.80;98.20;;;;;;5006790;28;20186;-72
2021/01/15 13:03:35;;;;;;;0.30;0.30;;;2.80;98.50;;;;;;5013744;28;20176;-72